sensor_id;sensor_type;location;lat;lon;timestamp;temperature;humidity
17529;DHT22;8882;53.192;8.184;2024-03-02T05:19:35;5.50;99.90
17529;DHT22;8882;53.192;8.184;2024-03-02T05:22:00;5.50;99.90
17529;DHT22;8882;53.192;8.184;2024-03-02T05:24:26;5.50;99.90
17529;DHT22;8882;53.192;8.184;2024-03-02T05:26:54;5.50;99.90
17529;DHT22;8882;53.192;8.184;2024-03-02T05:29:20;5.50;99.90
17529;DHT22;8882;53.192;8.184;2024-03-02T05:31:46;5.50;99.90
17529;DHT22;8882;53.192;8.184;2024-03-02T05:34:11;5.50;99.90
17529;DHT22;8882;53.192;8.184;2024-03-02T05:36:37;5.50;99.90
17529;DHT22;8882;53.192;8.184;2024-03-02T05:39:04;5.50;99.90
17529;DHT22;8882;53.192;8.184;2024-03-02T05:41:34;5.50;99.90
17529;DHT22;8882;53.192;8.184;2024-03-02T05:44:00;5.50;99.90
17529;DHT22;8882;53.192;8.184;2024-03-02T05:46:25;5.50;99.90
17529;DHT22;8882;53.192;8.184;2024-03-02T05:48:51;5.50;99.90
17529;DHT22;8882;53.192;8.184;2024-03-02T05:51:16;5.50;99.90
17529;DHT22;8882;53.192;8.184;2024-03-02T05:53:42;5.50;99.90
17529;DHT22;8882;53.192;8.184;2024-03-02T05:56:08;5.50;99.90
17529;DHT22;8882;53.192;8.184;2024-03-02T05:58:33;5.50;99.90
17529;DHT22;8882;53.192;8.184;2024-03-02T06:01:13;5.50;99.90
17529;DHT22;8882;53.192;8.184;2024-03-02T06:03:38;5.50;99.90
17529;DHT22;8882;53.192;8.184;2024-03-02T06:06:04;5.50;99.90
17529;DHT22;8882;53.192;8.184;2024-03-02T06:08:30;5.50;99.90
17529;DHT22;8882;53.192;8.184;2024-03-02T06:10:56;5.50;99.90
17529;DHT22;8882;53.192;8.184;2024-03-02T06:13:22;5.50;99.90
17529;DHT22;8882;53.192;8.184;2024-03-02T06:15:48;5.50;99.90
17529;DHT22;8882;53.192;8.184;2024-03-02T06:18:13;5.50;99.90
17529;DHT22;8882;53.192;8.184;2024-03-02T06:20:39;5.50;99.90
17529;DHT22;8882;53.192;8.184;2024-03-02T06:23:05;5.40;99.90
17529;DHT22;8882;53.192;8.184;2024-03-02T06:25:30;5.40;99.90
17529;DHT22;8882;53.192;8.184;2024-03-02T06:27:56;5.40;99.90
17529;DHT22;8882;53.192;8.184;2024-03-02T06:30:21;5.40;99.90
17529;DHT22;8882;53.192;8.184;2024-03-02T06:32:47;5.40;99.90
17529;DHT22;8882;53.192;8.184;2024-03-02T06:35:12;5.40;99.90
17529;DHT22;8882;53.192;8.184;2024-03-02T06:37:38;5.40;99.90
17529;DHT22;8882;53.192;8.184;2024-03-02T06:40:06;5.40;99.90
17529;DHT22;8882;53.192;8.184;2024-03-02T06:42:33;5.50;99.90
17529;DHT22;8882;53.192;8.184;2024-03-02T06:44:59;5.40;99.90
17529;DHT22;8882;53.192;8.184;2024-03-02T06:47:25;5.40;99.90
17529;DHT22;8882;53.192;8.184;2024-03-02T06:49:50;5.40;99.90
17529;DHT22;8882;53.192;8.184;2024-03-02T06:52:16;5.50;99.90
17529;DHT22;8882;53.192;8.184;2024-03-02T06:54:41;5.50;99.90
17529;DHT22;8882;53.192;8.184;2024-03-02T06:57:07;5.50;99.90
17529;DHT22;8882;53.192;8.184;2024-03-02T06:59:32;5.50;99.90
17529;DHT22;8882;53.192;8.184;2024-03-02T07:01:59;5.50;99.90
17529;DHT22;8882;53.192;8.184;2024-03-02T07:04:24;5.50;99.90
17529;DHT22;8882;53.192;8.184;2024-03-02T07:06:50;5.50;99.90
17529;DHT22;8882;53.192;8.184;2024-03-02T07:09:16;5.50;99.90
17529;DHT22;8882;53.192;8.184;2024-03-02T07:11:42;5.50;99.90
17529;DHT22;8882;53.192;8.184;2024-03-02T07:14:07;5.50;99.90
17529;DHT22;8882;53.192;8.184;2024-03-02T07:16:33;5.50;99.90
17529;DHT22;8882;53.192;8.184;2024-03-02T07:19:00;5.60;99.90
17529;DHT22;8882;53.192;8.184;2024-03-02T07:21:27;5.60;99.90
17529;DHT22;8882;53.192;8.184;2024-03-02T07:23:52;5.60;99.90
17529;DHT22;8882;53.192;8.184;2024-03-02T07:26:18;5.70;99.90
17529;DHT22;8882;53.192;8.184;2024-03-02T07:28:46;5.70;99.90
17529;DHT22;8882;53.192;8.184;2024-03-02T07:31:11;5.60;99.90
17529;DHT22;8882;53.192;8.184;2024-03-02T07:33:37;5.80;99.90
17529;DHT22;8882;53.192;8.184;2024-03-02T07:36:02;5.80;99.90
17529;DHT22;8882;53.192;8.184;2024-03-02T07:38:28;5.80;99.90
17529;DHT22;8882;53.192;8.184;2024-03-02T07:40:54;5.90;99.90
17529;DHT22;8882;53.192;8.184;2024-03-02T07:43:21;5.90;99.90
17529;DHT22;8882;53.192;8.184;2024-03-02T07:45:47;5.90;99.90
17529;DHT22;8882;53.192;8.184;2024-03-02T07:48:12;6.00;99.90
17529;DHT22;8882;53.192;8.184;2024-03-02T07:50:38;6.10;99.90
17529;DHT22;8882;53.192;8.184;2024-03-02T07:53:04;6.10;99.90
17529;DHT22;8882;53.192;8.184;2024-03-02T07:55:30;6.10;99.90
17529;DHT22;8882;53.192;8.184;2024-03-02T07:57:56;6.20;99.90
17529;DHT22;8882;53.192;8.184;2024-03-02T08:00:23;6.20;99.90
17529;DHT22;8882;53.192;8.184;2024-03-02T08:02:49;6.30;99.90
17529;DHT22;8882;53.192;8.184;2024-03-02T08:05:16;6.30;99.90
17529;DHT22;8882;53.192;8.184;2024-03-02T08:07:43;6.40;99.90
17529;DHT22;8882;53.192;8.184;2024-03-02T08:10:09;6.50;99.90
17529;DHT22;8882;53.192;8.184;2024-03-02T08:12:34;6.60;99.90
17529;DHT22;8882;53.192;8.184;2024-03-02T08:15:00;6.70;99.90
17529;DHT22;8882;53.192;8.184;2024-03-02T08:17:25;6.80;99.90
17529;DHT22;8882;53.192;8.184;2024-03-02T08:19:51;6.90;99.90
17529;DHT22;8882;53.192;8.184;2024-03-02T08:22:17;7.00;99.90
17529;DHT22;8882;53.192;8.184;2024-03-02T08:24:43;7.10;99.90
17529;DHT22;8882;53.192;8.184;2024-03-02T08:27:08;7.20;99.90
17529;DHT22;8882;53.192;8.184;2024-03-02T08:29:34;7.30;99.90
17529;DHT22;8882;53.192;8.184;2024-03-02T08:32:00;7.40;99.90
17529;DHT22;8882;53.192;8.184;2024-03-02T08:34:26;7.50;99.90
17529;DHT22;8882;53.192;8.184;2024-03-02T08:36:51;7.60;99.90
17529;DHT22;8882;53.192;8.184;2024-03-02T08:39:17;7.60;99.90
17529;DHT22;8882;53.192;8.184;2024-03-02T08:41:45;7.70;99.90
17529;DHT22;8882;53.192;8.184;2024-03-02T08:44:11;7.80;99.90
17529;DHT22;8882;53.192;8.184;2024-03-02T08:46:37;7.90;99.90
17529;DHT22;8882;53.192;8.184;2024-03-02T08:49:02;8.00;99.90
17529;DHT22;8882;53.192;8.184;2024-03-02T08:51:28;8.10;99.90
17529;DHT22;8882;53.192;8.184;2024-03-02T08:53:54;8.20;99.90
17529;DHT22;8882;53.192;8.184;2024-03-02T08:56:19;8.30;99.90
17529;DHT22;8882;53.192;8.184;2024-03-02T08:58:46;8.40;99.90
17529;DHT22;8882;53.192;8.184;2024-03-02T09:01:12;8.50;99.90
17529;DHT22;8882;53.192;8.184;2024-03-02T09:03:38;8.60;99.90
17529;DHT22;8882;53.192;8.184;2024-03-02T09:06:03;8.70;99.90
17529;DHT22;8882;53.192;8.184;2024-03-02T09:08:29;8.90;99.90
17529;DHT22;8882;53.192;8.184;2024-03-02T09:10:56;9.10;99.90
17529;DHT22;8882;53.192;8.184;2024-03-02T09:13:21;9.30;99.90
17529;DHT22;8882;53.192;8.184;2024-03-02T09:15:47;9.50;99.90
17529;DHT22;8882;53.192;8.184;2024-03-02T09:18:13;9.50;44.70
17529;DHT22;8882;53.192;8.184;2024-03-02T09:20:39;9.60;99.90
17529;DHT22;8882;53.192;8.184;2024-03-02T09:23:04;9.70;99.90
17529;DHT22;8882;53.192;8.184;2024-03-02T09:25:30;9.80;99.90
17529;DHT22;8882;53.192;8.184;2024-03-02T09:27:55;9.80;99.90
17529;DHT22;8882;53.192;8.184;2024-03-02T09:30:21;9.90;99.90
17529;DHT22;8882;53.192;8.184;2024-03-02T09:32:46;10.00;99.90
17529;DHT22;8882;53.192;8.184;2024-03-02T09:35:11;10.10;99.90
17529;DHT22;8882;53.192;8.184;2024-03-02T09:37:37;10.20;99.90
17529;DHT22;8882;53.192;8.184;2024-03-02T09:40:03;10.30;99.90
17529;DHT22;8882;53.192;8.184;2024-03-02T09:42:30;10.40;99.90
17529;DHT22;8882;53.192;8.184;2024-03-02T09:44:56;10.40;99.90
17529;DHT22;8882;53.192;8.184;2024-03-02T09:47:22;10.40;99.90
17529;DHT22;8882;53.192;8.184;2024-03-02T09:49:49;10.50;99.90
17529;DHT22;8882;53.192;8.184;2024-03-02T09:52:14;10.60;99.90
17529;DHT22;8882;53.192;8.184;2024-03-02T09:54:41;10.70;99.90
17529;DHT22;8882;53.192;8.184;2024-03-02T09:57:07;10.90;99.90
17529;DHT22;8882;53.192;8.184;2024-03-02T09:59:32;11.10;99.90
17529;DHT22;8882;53.192;8.184;2024-03-02T10:01:59;11.20;99.90
17529;DHT22;8882;53.192;8.184;2024-03-02T10:04:29;11.40;99.90
17529;DHT22;8882;53.192;8.184;2024-03-02T10:09:39;11.60;99.90
17529;DHT22;8882;53.192;8.184;2024-03-02T10:12:06;11.70;99.90
17529;DHT22;8882;53.192;8.184;2024-03-02T10:14:32;11.70;99.90
17529;DHT22;8882;53.192;8.184;2024-03-02T10:17:05;11.90;99.90
17529;DHT22;8882;53.192;8.184;2024-03-02T10:22:04;12.10;1.00
17529;DHT22;8882;53.192;8.184;2024-03-02T10:24:40;12.00;99.90
17529;DHT22;8882;53.192;8.184;2024-03-02T10:27:07;12.10;99.90
17529;DHT22;8882;53.192;8.184;2024-03-02T10:29:36;12.20;99.90
17529;DHT22;8882;53.192;8.184;2024-03-02T10:32:02;12.20;99.90
17529;DHT22;8882;53.192;8.184;2024-03-02T10:34:28;12.20;99.90
17529;DHT22;8882;53.192;8.184;2024-03-02T10:36:54;12.20;99.90
17529;DHT22;8882;53.192;8.184;2024-03-02T10:39:21;12.30;99.90
17529;DHT22;8882;53.192;8.184;2024-03-02T10:41:48;12.40;99.90
17529;DHT22;8882;53.192;8.184;2024-03-02T10:44:14;12.40;99.90
17529;DHT22;8882;53.192;8.184;2024-03-02T10:46:41;12.50;99.90
17529;DHT22;8882;53.192;8.184;2024-03-02T10:51:35;12.60;99.90
17529;DHT22;8882;53.192;8.184;2024-03-02T10:54:04;12.70;99.90
17529;DHT22;8882;53.192;8.184;2024-03-02T10:56:40;12.70;99.90
17529;DHT22;8882;53.192;8.184;2024-03-02T10:59:21;12.80;99.90
17529;DHT22;8882;53.192;8.184;2024-03-02T11:01:48;12.70;99.90
17529;DHT22;8882;53.192;8.184;2024-03-02T11:04:18;12.90;99.90
17529;DHT22;8882;53.192;8.184;2024-03-02T11:06:49;12.80;99.90
17529;DHT22;8882;53.192;8.184;2024-03-02T11:09:18;12.90;99.90
17529;DHT22;8882;53.192;8.184;2024-03-02T11:11:45;12.80;99.90
17529;DHT22;8882;53.192;8.184;2024-03-02T11:14:16;12.90;99.90
17529;DHT22;8882;53.192;8.184;2024-03-02T11:16:45;13.10;99.90
17529;DHT22;8882;53.192;8.184;2024-03-02T11:19:15;13.10;99.90
17529;DHT22;8882;53.192;8.184;2024-03-02T11:21:41;13.20;99.90
17529;DHT22;8882;53.192;8.184;2024-03-02T11:27:20;13.10;99.90
17529;DHT22;8882;53.192;8.184;2024-03-02T11:29:46;13.00;99.90
17529;DHT22;8882;53.192;8.184;2024-03-02T11:32:17;13.20;99.90
17529;DHT22;8882;53.192;8.184;2024-03-02T11:34:46;13.40;99.90
17529;DHT22;8882;53.192;8.184;2024-03-02T11:37:13;13.20;99.90
17529;DHT22;8882;53.192;8.184;2024-03-02T11:39:40;13.30;99.90
17529;DHT22;8882;53.192;8.184;2024-03-02T11:42:09;13.30;99.90
17529;DHT22;8882;53.192;8.184;2024-03-02T11:44:35;13.40;99.90
17529;DHT22;8882;53.192;8.184;2024-03-02T11:47:02;13.40;99.90
17529;DHT22;8882;53.192;8.184;2024-03-02T11:52:12;13.50;99.90
17529;DHT22;8882;53.192;8.184;2024-03-02T11:54:39;13.40;99.90
17529;DHT22;8882;53.192;8.184;2024-03-02T11:57:06;13.60;99.90
17529;DHT22;8882;53.192;8.184;2024-03-02T11:59:32;13.50;99.90
17529;DHT22;8882;53.192;8.184;2024-03-02T12:01:58;13.30;99.90
17529;DHT22;8882;53.192;8.184;2024-03-02T12:04:24;13.20;99.90
17529;DHT22;8882;53.192;8.184;2024-03-02T12:06:55;13.30;99.90
17529;DHT22;8882;53.192;8.184;2024-03-02T12:09:21;13.50;99.90
17529;DHT22;8882;53.192;8.184;2024-03-02T12:11:47;13.60;99.90
17529;DHT22;8882;53.192;8.184;2024-03-02T12:14:13;13.60;99.90
17529;DHT22;8882;53.192;8.184;2024-03-02T12:16:38;13.80;99.90
17529;DHT22;8882;53.192;8.184;2024-03-02T12:19:07;13.70;99.90
17529;DHT22;8882;53.192;8.184;2024-03-02T12:21:33;13.70;99.90
17529;DHT22;8882;53.192;8.184;2024-03-02T12:23:59;13.70;99.90
17529;DHT22;8882;53.192;8.184;2024-03-02T12:26:25;13.70;99.90
17529;DHT22;8882;53.192;8.184;2024-03-02T12:31:17;14.00;99.90
17529;DHT22;8882;53.192;8.184;2024-03-02T12:33:42;13.80;99.90
17529;DHT22;8882;53.192;8.184;2024-03-02T12:36:11;13.80;99.90
17529;DHT22;8882;53.192;8.184;2024-03-02T12:38:43;13.80;99.90
17529;DHT22;8882;53.192;8.184;2024-03-02T12:43:35;14.00;99.90
17529;DHT22;8882;53.192;8.184;2024-03-02T12:46:01;14.10;99.90
17529;DHT22;8882;53.192;8.184;2024-03-02T12:48:26;14.10;99.90
17529;DHT22;8882;53.192;8.184;2024-03-02T12:50:52;14.00;99.90
17529;DHT22;8882;53.192;8.184;2024-03-02T12:53:18;14.00;99.90
17529;DHT22;8882;53.192;8.184;2024-03-02T12:55:44;14.00;99.90
17529;DHT22;8882;53.192;8.184;2024-03-02T12:58:20;13.90;99.90
17529;DHT22;8882;53.192;8.184;2024-03-02T13:00:46;14.00;99.90
17529;DHT22;8882;53.192;8.184;2024-03-02T13:03:12;14.00;99.90
17529;DHT22;8882;53.192;8.184;2024-03-02T13:05:39;14.00;99.90
17529;DHT22;8882;53.192;8.184;2024-03-02T13:08:06;13.90;99.90
17529;DHT22;8882;53.192;8.184;2024-03-02T13:10:32;13.90;99.90
17529;DHT22;8882;53.192;8.184;2024-03-02T13:12:58;13.90;99.90
17529;DHT22;8882;53.192;8.184;2024-03-02T13:15:26;13.80;99.90
17529;DHT22;8882;53.192;8.184;2024-03-02T13:17:51;13.90;99.90
17529;DHT22;8882;53.192;8.184;2024-03-02T13:20:16;14.00;99.90
17529;DHT22;8882;53.192;8.184;2024-03-02T13:22:43;14.00;99.90
17529;DHT22;8882;53.192;8.184;2024-03-02T13:25:09;14.00;99.90
17529;DHT22;8882;53.192;8.184;2024-03-02T13:27:36;14.00;99.90
17529;DHT22;8882;53.192;8.184;2024-03-02T13:30:03;14.00;99.90
17529;DHT22;8882;53.192;8.184;2024-03-02T13:32:29;14.00;99.90
17529;DHT22;8882;53.192;8.184;2024-03-02T13:34:54;14.00;99.90
17529;DHT22;8882;53.192;8.184;2024-03-02T13:37:20;14.00;99.90
17529;DHT22;8882;53.192;8.184;2024-03-02T13:39:46;14.00;99.90
17529;DHT22;8882;53.192;8.184;2024-03-02T13:42:13;14.00;99.90
17529;DHT22;8882;53.192;8.184;2024-03-02T13:44:40;14.10;99.90
17529;DHT22;8882;53.192;8.184;2024-03-02T13:47:07;14.00;99.90
17529;DHT22;8882;53.192;8.184;2024-03-02T13:49:32;14.00;99.90
17529;DHT22;8882;53.192;8.184;2024-03-02T13:52:08;14.00;99.90
17529;DHT22;8882;53.192;8.184;2024-03-02T13:54:39;14.00;99.90
17529;DHT22;8882;53.192;8.184;2024-03-02T13:57:05;14.10;99.90
17529;DHT22;8882;53.192;8.184;2024-03-02T13:59:31;14.10;99.90
17529;DHT22;8882;53.192;8.184;2024-03-02T14:01:56;14.10;99.90
17529;DHT22;8882;53.192;8.184;2024-03-02T14:04:22;14.10;99.90
17529;DHT22;8882;53.192;8.184;2024-03-02T14:06:48;14.10;99.90
17529;DHT22;8882;53.192;8.184;2024-03-02T14:09:13;14.10;99.90
17529;DHT22;8882;53.192;8.184;2024-03-02T14:11:39;14.00;99.90
17529;DHT22;8882;53.192;8.184;2024-03-02T14:14:04;14.10;99.90
17529;DHT22;8882;53.192;8.184;2024-03-02T14:16:30;14.00;99.90
17529;DHT22;8882;53.192;8.184;2024-03-02T14:18:56;14.10;99.90
17529;DHT22;8882;53.192;8.184;2024-03-02T14:21:21;14.10;99.90
17529;DHT22;8882;53.192;8.184;2024-03-02T14:23:47;14.10;99.90
17529;DHT22;8882;53.192;8.184;2024-03-02T14:26:12;14.10;99.90
17529;DHT22;8882;53.192;8.184;2024-03-02T14:28:38;14.10;99.90
17529;DHT22;8882;53.192;8.184;2024-03-02T14:31:03;14.00;99.90
17529;DHT22;8882;53.192;8.184;2024-03-02T14:33:29;14.00;99.90
17529;DHT22;8882;53.192;8.184;2024-03-02T14:35:54;14.00;99.90
17529;DHT22;8882;53.192;8.184;2024-03-02T14:38:20;13.90;99.90
17529;DHT22;8882;53.192;8.184;2024-03-02T14:40:45;14.00;99.90
17529;DHT22;8882;53.192;8.184;2024-03-02T14:43:11;13.90;99.90
17529;DHT22;8882;53.192;8.184;2024-03-02T14:45:36;13.80;99.90
17529;DHT22;8882;53.192;8.184;2024-03-02T14:48:03;13.80;99.90
17529;DHT22;8882;53.192;8.184;2024-03-02T14:50:29;13.70;99.90
17529;DHT22;8882;53.192;8.184;2024-03-02T14:52:54;13.60;99.90
17529;DHT22;8882;53.192;8.184;2024-03-02T14:55:23;13.60;99.90
17529;DHT22;8882;53.192;8.184;2024-03-02T14:57:49;13.50;99.90
17529;DHT22;8882;53.192;8.184;2024-03-02T15:00:15;13.50;99.90
17529;DHT22;8882;53.192;8.184;2024-03-02T15:02:41;13.40;99.90
17529;DHT22;8882;53.192;8.184;2024-03-02T15:05:07;13.40;99.90
17529;DHT22;8882;53.192;8.184;2024-03-02T15:07:32;13.30;99.90
17529;DHT22;8882;53.192;8.184;2024-03-02T15:09:58;13.30;99.90
17529;DHT22;8882;53.192;8.184;2024-03-02T15:12:24;13.30;99.90
17529;DHT22;8882;53.192;8.184;2024-03-02T15:14:49;13.20;99.90
17529;DHT22;8882;53.192;8.184;2024-03-02T15:17:15;13.30;99.90
17529;DHT22;8882;53.192;8.184;2024-03-02T15:19:45;13.30;99.90
17529;DHT22;8882;53.192;8.184;2024-03-02T15:22:11;13.20;99.90
17529;DHT22;8882;53.192;8.184;2024-03-02T15:24:37;13.20;99.90
17529;DHT22;8882;53.192;8.184;2024-03-02T15:27:04;13.20;99.90
17529;DHT22;8882;53.192;8.184;2024-03-02T15:29:31;13.20;99.90
17529;DHT22;8882;53.192;8.184;2024-03-02T15:31:57;13.10;99.90
17529;DHT22;8882;53.192;8.184;2024-03-02T15:34:23;13.10;99.90
17529;DHT22;8882;53.192;8.184;2024-03-02T15:36:49;13.10;99.90
17529;DHT22;8882;53.192;8.184;2024-03-02T15:39:14;13.10;99.90
17529;DHT22;8882;53.192;8.184;2024-03-02T15:41:40;13.10;99.90
17529;DHT22;8882;53.192;8.184;2024-03-02T15:44:08;13.10;99.90
17529;DHT22;8882;53.192;8.184;2024-03-02T15:46:34;13.00;99.90
17529;DHT22;8882;53.192;8.184;2024-03-02T15:48:59;13.00;99.90
17529;DHT22;8882;53.192;8.184;2024-03-02T15:51:28;13.00;99.90
17529;DHT22;8882;53.192;8.184;2024-03-02T15:53:54;13.00;99.90
17529;DHT22;8882;53.192;8.184;2024-03-02T15:56:20;13.00;99.90
17529;DHT22;8882;53.192;8.184;2024-03-02T15:58:46;13.00;99.90
17529;DHT22;8882;53.192;8.184;2024-03-02T16:01:12;13.00;99.90
17529;DHT22;8882;53.192;8.184;2024-03-02T16:03:37;13.00;99.90
17529;DHT22;8882;53.192;8.184;2024-03-02T16:06:04;13.00;99.90
17529;DHT22;8882;53.192;8.184;2024-03-02T16:08:29;12.90;99.90
17529;DHT22;8882;53.192;8.184;2024-03-02T16:10:55;12.90;99.90
17529;DHT22;8882;53.192;8.184;2024-03-02T16:13:21;12.80;99.90
17529;DHT22;8882;53.192;8.184;2024-03-02T16:15:47;12.80;99.90
17529;DHT22;8882;53.192;8.184;2024-03-02T16:18:12;12.70;99.90
17529;DHT22;8882;53.192;8.184;2024-03-02T16:20:38;12.70;99.90
17529;DHT22;8882;53.192;8.184;2024-03-02T16:23:03;12.70;99.90
17529;DHT22;8882;53.192;8.184;2024-03-02T16:25:29;12.70;99.90
17529;DHT22;8882;53.192;8.184;2024-03-02T16:27:56;12.70;99.90
17529;DHT22;8882;53.192;8.184;2024-03-02T16:30:22;12.70;99.90
17529;DHT22;8882;53.192;8.184;2024-03-02T16:32:49;12.60;99.90
17529;DHT22;8882;53.192;8.184;2024-03-02T16:35:15;12.60;99.90
17529;DHT22;8882;53.192;8.184;2024-03-02T16:37:41;12.60;99.90
17529;DHT22;8882;53.192;8.184;2024-03-02T16:40:07;12.60;99.90
17529;DHT22;8882;53.192;8.184;2024-03-02T16:42:33;12.50;99.90
17529;DHT22;8882;53.192;8.184;2024-03-02T16:44:58;12.50;99.90
17529;DHT22;8882;53.192;8.184;2024-03-02T16:47:24;12.50;99.90
17529;DHT22;8882;53.192;8.184;2024-03-02T16:49:53;12.50;99.90
17529;DHT22;8882;53.192;8.184;2024-03-02T16:52:19;12.40;99.90
17529;DHT22;8882;53.192;8.184;2024-03-02T16:54:48;12.40;99.90
17529;DHT22;8882;53.192;8.184;2024-03-02T16:57:15;12.40;99.90
17529;DHT22;8882;53.192;8.184;2024-03-02T16:59:42;12.40;99.90
17529;DHT22;8882;53.192;8.184;2024-03-02T17:02:08;12.30;99.90
17529;DHT22;8882;53.192;8.184;2024-03-02T17:04:36;12.30;99.90
17529;DHT22;8882;53.192;8.184;2024-03-02T17:07:01;12.30;99.90
17529;DHT22;8882;53.192;8.184;2024-03-02T17:09:27;12.20;99.90
17529;DHT22;8882;53.192;8.184;2024-03-02T17:11:53;12.20;99.90
17529;DHT22;8882;53.192;8.184;2024-03-02T17:14:18;12.20;99.90
17529;DHT22;8882;53.192;8.184;2024-03-02T17:16:44;12.20;99.90
17529;DHT22;8882;53.192;8.184;2024-03-02T17:19:09;12.10;99.90
17529;DHT22;8882;53.192;8.184;2024-03-02T17:21:35;12.10;99.90
17529;DHT22;8882;53.192;8.184;2024-03-02T17:24:00;12.10;99.90
17529;DHT22;8882;53.192;8.184;2024-03-02T17:26:30;12.00;99.90
17529;DHT22;8882;53.192;8.184;2024-03-02T17:28:56;11.90;99.90
17529;DHT22;8882;53.192;8.184;2024-03-02T17:31:21;11.80;99.90
17529;DHT22;8882;53.192;8.184;2024-03-02T17:33:47;11.80;99.90
17529;DHT22;8882;53.192;8.184;2024-03-02T17:36:13;11.80;99.90
17529;DHT22;8882;53.192;8.184;2024-03-02T17:38:40;11.70;99.90
17529;DHT22;8882;53.192;8.184;2024-03-02T17:41:05;11.70;99.90
17529;DHT22;8882;53.192;8.184;2024-03-02T17:43:36;11.60;99.90
17529;DHT22;8882;53.192;8.184;2024-03-02T17:46:01;11.60;99.90
17529;DHT22;8882;53.192;8.184;2024-03-02T17:48:27;11.60;99.90
17529;DHT22;8882;53.192;8.184;2024-03-02T17:50:53;11.50;99.90
17529;DHT22;8882;53.192;8.184;2024-03-02T17:53:19;11.50;99.90
17529;DHT22;8882;53.192;8.184;2024-03-02T17:55:44;11.50;99.90
17529;DHT22;8882;53.192;8.184;2024-03-02T17:58:10;11.50;99.90
17529;DHT22;8882;53.192;8.184;2024-03-02T18:00:35;11.40;99.90
17529;DHT22;8882;53.192;8.184;2024-03-02T18:03:01;11.50;99.90
17529;DHT22;8882;53.192;8.184;2024-03-02T18:05:26;11.40;99.90
17529;DHT22;8882;53.192;8.184;2024-03-02T18:07:52;11.40;99.90
17529;DHT22;8882;53.192;8.184;2024-03-02T18:10:17;11.40;99.90
17529;DHT22;8882;53.192;8.184;2024-03-02T18:12:43;11.40;99.90
17529;DHT22;8882;53.192;8.184;2024-03-02T18:15:09;11.40;99.90
17529;DHT22;8882;53.192;8.184;2024-03-02T18:17:35;11.50;99.90
17529;DHT22;8882;53.192;8.184;2024-03-02T18:20:01;11.50;99.90
17529;DHT22;8882;53.192;8.184;2024-03-02T18:22:28;11.50;99.90
17529;DHT22;8882;53.192;8.184;2024-03-02T18:24:53;11.50;99.90
17529;DHT22;8882;53.192;8.184;2024-03-02T18:27:19;11.40;99.90
17529;DHT22;8882;53.192;8.184;2024-03-02T18:29:44;11.40;99.90
17529;DHT22;8882;53.192;8.184;2024-03-02T18:32:10;11.30;99.90
17529;DHT22;8882;53.192;8.184;2024-03-02T18:34:36;11.30;99.90
17529;DHT22;8882;53.192;8.184;2024-03-02T18:37:01;11.20;99.90
17529;DHT22;8882;53.192;8.184;2024-03-02T18:39:27;11.20;99.90
17529;DHT22;8882;53.192;8.184;2024-03-02T18:41:53;11.20;99.90
17529;DHT22;8882;53.192;8.184;2024-03-02T18:44:18;11.20;99.90
17529;DHT22;8882;53.192;8.184;2024-03-02T18:46:44;11.20;99.90
17529;DHT22;8882;53.192;8.184;2024-03-02T18:49:10;11.10;99.90
17529;DHT22;8882;53.192;8.184;2024-03-02T18:51:36;11.10;99.90
17529;DHT22;8882;53.192;8.184;2024-03-02T18:54:01;11.10;99.90
17529;DHT22;8882;53.192;8.184;2024-03-02T18:56:27;11.10;99.90
17529;DHT22;8882;53.192;8.184;2024-03-02T18:58:53;11.00;99.90
17529;DHT22;8882;53.192;8.184;2024-03-02T19:01:18;11.00;99.90
17529;DHT22;8882;53.192;8.184;2024-03-02T19:03:46;11.00;99.90
17529;DHT22;8882;53.192;8.184;2024-03-02T19:06:15;11.00;99.90
17529;DHT22;8882;53.192;8.184;2024-03-02T19:08:41;11.00;99.90
17529;DHT22;8882;53.192;8.184;2024-03-02T19:11:16;11.00;99.90
17529;DHT22;8882;53.192;8.184;2024-03-02T19:13:42;11.00;99.90
17529;DHT22;8882;53.192;8.184;2024-03-02T19:16:15;11.00;99.90
17529;DHT22;8882;53.192;8.184;2024-03-02T19:18:41;11.00;99.90
17529;DHT22;8882;53.192;8.184;2024-03-02T19:21:08;10.90;99.90
17529;DHT22;8882;53.192;8.184;2024-03-02T19:23:34;10.90;99.90
17529;DHT22;8882;53.192;8.184;2024-03-02T19:25:59;10.90;99.90
17529;DHT22;8882;53.192;8.184;2024-03-02T19:28:25;10.80;99.90
17529;DHT22;8882;53.192;8.184;2024-03-02T19:30:51;10.80;99.90
17529;DHT22;8882;53.192;8.184;2024-03-02T19:35:53;10.70;99.90
17529;DHT22;8882;53.192;8.184;2024-03-02T19:38:18;10.80;99.90
17529;DHT22;8882;53.192;8.184;2024-03-02T19:40:44;10.70;99.90
17529;DHT22;8882;53.192;8.184;2024-03-02T19:43:09;10.60;99.90
17529;DHT22;8882;53.192;8.184;2024-03-02T19:45:35;10.60;99.90
17529;DHT22;8882;53.192;8.184;2024-03-02T19:48:00;10.60;99.90
17529;DHT22;8882;53.192;8.184;2024-03-02T19:50:26;10.60;99.90
17529;DHT22;8882;53.192;8.184;2024-03-02T19:52:51;10.50;99.90
17529;DHT22;8882;53.192;8.184;2024-03-02T19:55:17;10.50;99.90
17529;DHT22;8882;53.192;8.184;2024-03-02T19:57:42;10.50;99.90
17529;DHT22;8882;53.192;8.184;2024-03-02T20:00:12;10.40;99.90
17529;DHT22;8882;53.192;8.184;2024-03-02T20:02:39;10.40;99.90
17529;DHT22;8882;53.192;8.184;2024-03-02T20:05:05;10.40;99.90
17529;DHT22;8882;53.192;8.184;2024-03-02T20:07:30;10.30;99.90
17529;DHT22;8882;53.192;8.184;2024-03-02T20:09:56;10.30;99.90
17529;DHT22;8882;53.192;8.184;2024-03-02T20:12:22;10.30;99.90
17529;DHT22;8882;53.192;8.184;2024-03-02T20:14:47;10.30;99.90
17529;DHT22;8882;53.192;8.184;2024-03-02T20:17:14;10.30;99.90
17529;DHT22;8882;53.192;8.184;2024-03-02T20:19:40;10.20;99.90
17529;DHT22;8882;53.192;8.184;2024-03-02T20:22:05;10.20;99.90
17529;DHT22;8882;53.192;8.184;2024-03-02T20:24:31;10.20;99.90
17529;DHT22;8882;53.192;8.184;2024-03-02T20:26:57;10.20;99.90
17529;DHT22;8882;53.192;8.184;2024-03-02T20:29:22;10.10;99.90
17529;DHT22;8882;53.192;8.184;2024-03-02T20:31:48;10.10;99.90
17529;DHT22;8882;53.192;8.184;2024-03-02T20:34:13;10.10;99.90
17529;DHT22;8882;53.192;8.184;2024-03-02T20:36:42;10.10;99.90
17529;DHT22;8882;53.192;8.184;2024-03-02T20:39:08;10.10;99.90
17529;DHT22;8882;53.192;8.184;2024-03-02T20:41:33;10.10;99.90
17529;DHT22;8882;53.192;8.184;2024-03-02T20:43:59;10.10;99.90
17529;DHT22;8882;53.192;8.184;2024-03-02T20:46:24;10.10;99.90
17529;DHT22;8882;53.192;8.184;2024-03-02T20:48:50;10.10;99.90
17529;DHT22;8882;53.192;8.184;2024-03-02T20:51:15;10.10;99.90
17529;DHT22;8882;53.192;8.184;2024-03-02T20:53:41;10.10;99.90
17529;DHT22;8882;53.192;8.184;2024-03-02T20:56:07;10.10;99.90
17529;DHT22;8882;53.192;8.184;2024-03-02T20:58:32;10.00;99.90
17529;DHT22;8882;53.192;8.184;2024-03-02T21:00:58;10.00;99.90
17529;DHT22;8882;53.192;8.184;2024-03-02T21:03:24;10.00;99.90
17529;DHT22;8882;53.192;8.184;2024-03-02T21:05:49;10.00;99.90
17529;DHT22;8882;53.192;8.184;2024-03-02T21:08:15;9.90;99.90
17529;DHT22;8882;53.192;8.184;2024-03-02T21:10:40;9.90;99.90
17529;DHT22;8882;53.192;8.184;2024-03-02T21:13:06;9.90;99.90
17529;DHT22;8882;53.192;8.184;2024-03-02T21:15:31;9.90;99.90
17529;DHT22;8882;53.192;8.184;2024-03-02T21:17:57;9.90;99.90
17529;DHT22;8882;53.192;8.184;2024-03-02T21:20:26;9.90;99.90
17529;DHT22;8882;53.192;8.184;2024-03-02T21:22:52;9.90;99.90